Time;durP1;ratioP1;P1;durP2;ratioP2;P2;SDS_P1;SDS_P2;PMS_P1;PMS_P2;Temp;Humidity;BMP_temperature;BMP_pressure;BME280_temperature;BME280_humidity;BME280_pressure;Samples;Min_cycle;Max_cycle;Signal;HPM_P1;HPM_P2
2022/01/08 00:00:40;;;;;;;13.82;12.32;;;2.20;1.00;;;2.32;77.35;100522.25;4995009;28;20206;-68
2022/01/08 00:03:08;;;;;;;15.75;12.45;;;2.30;1.00;;;2.36;77.45;100524.44;4994869;28;20186;-68
2022/01/08 00:05:37;;;;;;;14.43;11.73;;;2.30;1.00;;;2.26;77.76;100507.69;4994313;28;20191;-69
2022/01/08 00:08:06;;;;;;;12.90;11.60;;;2.30;1.00;;;2.16;78.16;100507.81;4994553;28;20182;-68
2022/01/08 00:10:35;;;;;;;15.38;12.35;;;2.20;1.00;;;2.07;78.81;100508.75;4994796;28;20581;-70
2022/01/08 00:13:05;;;;;;;14.60;12.00;;;2.10;1.00;;;2.11;78.50;100503.94;4995088;28;20523;-71
2022/01/08 00:15:34;;;;;;;14.80;12.68;;;2.10;1.00;;;1.97;79.39;100502.69;4994467;28;20198;-69
2022/01/08 00:18:03;;;;;;;12.77;11.23;;;2.00;45.80;;;1.94;79.16;100502.97;4994386;28;20214;-69
2022/01/08 00:20:32;;;;;;;14.65;12.98;;;2.00;33.70;;;1.67;80.36;100503.09;4994460;28;20585;-69
2022/01/08 00:23:00;;;;;;;23.63;14.02;;;1.80;99.90;;;1.66;80.40;100498.75;4994471;28;20329;-68
2022/01/08 00:25:29;;;;;;;15.35;13.75;;;1.70;99.90;;;1.83;80.23;100500.56;4993962;28;20183;-69
2022/01/08 00:27:58;;;;;;;16.58;13.73;;;1.80;41.40;;;1.72;80.79;100493.66;4994623;28;20246;-69
2022/01/08 00:30:27;;;;;;;15.65;13.13;;;1.70;99.90;;;1.72;81.04;100493.66;4994411;28;20769;-68
2022/01/08 00:32:56;;;;;;;17.30;15.15;;;1.70;99.90;;;1.82;80.81;100492.72;4994988;28;20199;-66
2022/01/08 00:35:24;;;;;;;17.20;15.23;;;1.70;94.60;;;1.81;80.32;100496.38;4977302;28;20199;-68
2022/01/08 00:37:53;;;;;;;16.77;15.00;;;1.80;1.00;;;1.66;80.46;100499.59;4995459;28;20193;-68
2022/01/08 00:40:23;;;;;;;19.40;14.20;;;1.70;1.00;;;1.47;80.97;100493.59;4994711;28;20281;-68
2022/01/08 00:42:51;;;;;;;16.98;13.38;;;1.50;1.00;;;1.55;81.67;100496.34;4995640;28;20547;-68
2022/01/08 00:45:22;;;;;;;17.80;14.27;;;1.60;1.00;;;1.52;81.44;100497.47;4995164;28;20186;-68
2022/01/08 00:47:51;;;;;;;18.33;14.45;;;1.50;99.90;;;1.43;81.43;100487.75;4994336;28;20186;-68
2022/01/08 00:50:21;;;;;;;16.77;13.15;;;1.50;99.90;;;1.37;82.12;100492.84;4994334;28;20615;-68
2022/01/08 00:52:50;;;;;;;17.05;13.05;;;1.40;1.00;;;1.51;81.77;100497.63;4995288;28;20194;-65
2022/01/08 00:55:19;;;;;;;14.95;13.50;;;1.50;99.90;;;1.48;82.12;100489.94;4998890;28;20674;-68
2022/01/08 00:57:47;;;;;;;14.13;12.70;;;1.40;1.00;;;1.48;81.59;100484.63;4999093;28;20700;-66
2022/01/08 01:00:16;;;;;;;17.15;14.77;;;1.40;99.90;;;1.41;81.72;100488.88;4999117;28;20217;-67
2022/01/08 01:02:46;;;;;;;14.90;12.55;;;1.40;99.90;;;1.47;81.54;100491.78;4999369;28;20217;-68
2022/01/08 01:05:14;;;;;;;17.40;15.52;;;1.50;99.90;;;1.44;82.43;100488.59;4999240;28;20286;-67
2022/01/08 01:07:43;;;;;;;16.58;14.88;;;1.50;99.90;;;1.57;81.86;100489.03;4995951;28;20539;-67
2022/01/08 01:10:11;;;;;;;16.92;15.02;;;1.50;99.90;;;1.61;81.80;100482.38;4994211;28;20253;-67
2022/01/08 01:12:40;;;;;;;24.05;18.45;;;1.60;99.90;;;1.62;81.67;100478.72;4993729;28;20183;-69
2022/01/08 01:15:12;;;;;;;22.55;20.15;;;1.60;99.90;;;1.72;81.57;100474.97;4996715;28;20190;-68
2022/01/08 01:17:42;;;;;;;20.33;18.10;;;1.70;99.90;;;1.59;81.48;100476.38;5000132;28;20226;-66
2022/01/08 01:20:16;;;;;;;25.27;21.33;;;1.60;99.90;;;1.57;82.07;100473.88;4998860;28;20592;-70
2022/01/08 01:22:52;;;;;;;26.90;21.30;;;1.60;99.90;;;1.76;81.72;100475.50;4999593;28;20262;-69
2022/01/08 01:25:26;;;;;;;23.85;21.17;;;1.70;99.90;;;1.77;81.52;100471.84;5000174;28;20204;-69
2022/01/08 01:28:09;;;;;;;27.48;21.77;;;1.70;99.90;;;1.87;81.33;100475.25;5000078;28;20695;-65
2022/01/08 01:41:03;;;;;;;29.75;23.98;;;1.80;99.90;;;1.77;81.50;100468.34;4982663;28;20224;-69
2022/01/08 01:47:37;;;;;;;28.90;22.85;;;1.90;36.10;;;1.88;81.56;100444.91;4973163;28;20234;-67
2022/01/08 01:50:09;;;;;;;26.77;21.98;;;1.90;49.50;;;1.92;80.74;100448.09;4973234;28;20215;-66
2022/01/08 01:52:39;;;;;;;24.90;21.20;;;1.90;1.00;;;1.83;80.83;100455.22;4973234;28;20536;-66
2022/01/08 01:55:08;;;;;;;25.92;21.95;;;1.90;1.00;;;1.78;81.24;100449.53;4973301;28;20219;-65
2022/01/08 01:57:38;;;;;;;24.55;15.82;;;1.90;1.00;;;1.70;81.42;100446.78;4973038;28;20203;-66
2022/01/08 02:00:09;;;;;;;24.00;19.80;;;1.80;1.00;;;1.50;81.93;100443.47;4973115;28;20303;-67
2022/01/08 02:02:41;;;;;;;24.05;18.60;;;1.60;1.00;;;1.62;82.16;100434.22;4972887;28;20176;-67
2022/01/08 02:05:10;;;;;;;20.65;18.40;;;1.70;1.00;;;1.63;81.90;100435.91;4972803;28;20671;-67
2022/01/08 02:07:40;;;;;;;18.40;16.25;;;1.70;14.90;;;1.71;81.71;100438.63;4972860;28;20298;-67
2022/01/08 02:10:10;;;;;;;17.90;16.13;;;1.70;99.90;;;1.72;81.54;100439.47;4973481;28;20211;-67
2022/01/08 02:12:38;;;;;;;19.38;15.27;;;1.70;99.90;;;1.66;81.59;100440.91;4973296;28;20588;-67
2022/01/08 02:15:08;;;;;;;18.42;15.23;;;1.70;99.90;;;1.57;82.13;100428.53;4972843;28;20230;-66
2022/01/08 02:17:36;;;;;;;17.83;15.25;;;1.60;99.90;;;1.73;81.74;100425.13;4973267;28;20687;-66
2022/01/08 02:20:08;;;;;;;17.52;15.75;;;1.70;99.90;;;1.82;81.55;100428.69;4973731;28;20703;-65
2022/01/08 02:22:37;;;;;;;21.63;15.23;;;1.80;99.90;;;1.78;81.51;100428.19;4979449;28;20178;-67
2022/01/08 02:25:06;;;;;;;18.63;15.60;;;1.80;99.90;;;1.76;81.33;100435.50;4980828;28;20612;-66
2022/01/08 02:27:35;;;;;;;16.17;14.40;;;1.80;99.90;;;1.73;81.76;100428.66;4980510;28;20183;-67
2022/01/08 02:30:04;;;;;;;19.92;15.18;;;1.80;99.90;;;1.73;81.47;100431.31;4978996;28;20207;-67
2022/01/08 02:32:33;;;;;;;15.98;13.18;;;1.80;76.10;;;1.60;81.78;100428.19;4980287;28;20596;-68
2022/01/08 02:35:01;;;;;;;18.25;16.27;;;1.70;27.90;;;1.77;81.53;100428.31;4976557;28;20679;-67
2022/01/08 02:37:33;;;;;;;17.67;14.98;;;1.70;81.40;;;1.92;81.04;100430.25;4975168;28;20227;-67
2022/01/08 02:40:04;;;;;;;18.40;15.85;;;1.90;76.60;;;2.01;80.86;100434.66;4973723;28;20634;-66
2022/01/08 02:42:39;;;;;;;23.92;17.85;;;1.90;28.20;;;1.83;81.31;100433.88;4973356;28;20187;-67
2022/01/08 02:45:09;;;;;;;24.65;18.60;;;1.90;1.00;;;1.92;81.23;100435.59;4973074;28;20171;-67
2022/01/08 02:47:37;;;;;;;25.17;22.02;;;1.90;1.00;;;2.02;81.03;100431.00;4974321;28;20515;-67
2022/01/08 02:50:07;;;;;;;26.50;23.55;;;2.00;1.00;;;2.00;81.08;100432.97;4975770;28;20768;-68
2022/01/08 02:52:41;;;;;;;27.20;23.10;;;2.00;1.00;;;2.14;81.01;100432.38;4977467;28;20179;-67
2022/01/08 02:55:14;;;;;;;25.98;21.73;;;2.10;1.00;;;2.30;80.65;100436.97;4978132;28;20674;-66
2022/01/08 02:57:42;;;;;;;23.85;20.75;;;2.20;1.00;;;2.20;80.34;100436.25;4981553;28;20309;-66
2022/01/08 03:00:16;;;;;;;23.90;20.20;;;2.20;1.00;;;2.31;80.48;100424.44;4985817;28;20247;-65
2022/01/08 03:02:47;;;;;;;28.42;23.27;;;2.20;99.90;;;2.21;80.47;100423.75;4982665;28;20688;-67
2022/01/08 03:05:17;;;;;;;21.90;19.65;;;2.20;1.00;;;2.25;79.87;100428.59;4983315;28;20664;-67
2022/01/08 03:07:49;;;;;;;24.08;21.20;;;2.20;99.90;;;2.22;80.23;100430.75;4983194;28;20183;-67
2022/01/08 03:10:19;;;;;;;27.45;22.15;;;2.20;1.00;;;2.34;79.96;100438.31;4984785;28;20627;-65
2022/01/08 03:12:47;;;;;;;25.42;21.20;;;2.30;1.00;;;2.33;80.20;100438.47;4983898;28;20175;-66
2022/01/08 03:15:19;;;;;;;24.23;20.45;;;2.30;99.90;;;2.26;80.00;100426.75;4985239;28;20259;-65
2022/01/08 03:17:48;;;;;;;25.20;20.77;;;2.30;99.90;;;2.28;79.95;100422.09;4985153;28;20215;-66
2022/01/08 03:20:17;;;;;;;20.75;18.27;;;2.30;61.70;;;2.28;79.41;100424.75;4985086;28;20207;-65
2022/01/08 03:22:48;;;;;;;24.00;19.52;;;2.30;1.00;;;2.27;79.96;100426.63;4985585;28;20259;-66
2022/01/08 03:25:17;;;;;;;24.85;19.60;;;2.30;1.00;;;2.33;79.90;100431.28;4987454;28;20231;-67
2022/01/08 03:27:48;;;;;;;22.10;18.15;;;2.30;1.00;;;2.29;79.98;100421.09;4988067;28;20183;-67
2022/01/08 03:30:17;;;;;;;18.48;16.10;;;2.30;1.00;;;2.29;79.44;100418.44;4987907;28;20211;-67
2022/01/08 03:32:46;;;;;;;24.35;17.08;;;2.30;99.90;;;2.10;79.79;100412.34;4987653;28;20191;-66
2022/01/08 03:35:15;;;;;;;19.05;16.73;;;2.20;99.90;;;1.80;80.44;100409.31;4992437;28;20176;-67
2022/01/08 03:37:43;;;;;;;18.02;15.85;;;2.00;99.90;;;1.87;80.81;100408.56;4992330;28;20210;-67
2022/01/08 03:40:13;;;;;;;20.70;18.05;;;2.00;99.90;;;1.75;80.96;100412.47;4965893;28;20249;-67
2022/01/08 03:42:42;;;;;;;19.27;15.65;;;1.90;1.00;;;1.80;81.17;100415.50;4989874;28;20176;-66
2022/01/08 03:45:11;;;;;;;19.15;15.93;;;1.90;82.80;;;1.96;80.79;100412.09;4976729;28;20219;-67
2022/01/08 03:48:05;;;;;;;17.27;13.88;;;1.90;99.90;;;1.95;80.91;100413.09;4976723;28;20175;-67
2022/01/08 03:50:34;;;;;;;20.23;16.10;;;1.90;99.90;;;2.05;81.08;100419.16;4958916;28;20719;-66
2022/01/08 03:53:02;;;;;;;20.40;16.55;;;2.00;99.90;;;2.06;80.97;100413.66;4976269;28;20180;-66
2022/01/08 03:55:32;;;;;;;17.90;14.98;;;2.10;1.00;;;2.22;80.18;100418.25;4975334;28;20182;-66
2022/01/08 03:58:01;;;;;;;19.17;16.52;;;2.10;1.00;;;2.02;80.08;100412.31;4976062;28;20238;-65
2022/01/08 04:00:29;;;;;;;23.95;19.17;;;2.10;1.00;;;2.07;80.14;100417.16;4975555;28;20199;-66
2022/01/08 04:02:58;;;;;;;19.20;17.10;;;2.10;99.90;;;2.07;80.61;100418.00;4976281;28;20188;-66
2022/01/08 04:05:26;;;;;;;21.10;16.17;;;2.10;99.90;;;2.18;80.13;100415.03;4976529;28;20180;-66
2022/01/08 04:07:55;;;;;;;22.30;19.85;;;2.10;1.00;;;2.08;80.16;100417.00;4958290;28;20299;-66
2022/01/08 04:10:24;;;;;;;22.30;18.63;;;2.10;99.90;;;1.96;80.62;100420.09;4979316;28;20215;-66
2022/01/08 04:12:56;;;;;;;20.52;17.35;;;2.00;99.90;;;2.11;80.66;100418.53;4979770;28;20191;-66
2022/01/08 04:15:36;;;;;;;26.42;19.55;;;2.10;99.90;;;2.24;79.60;100418.06;4979225;28;20187;-67
2022/01/08 04:18:05;;;;;;;25.73;19.65;;;2.20;1.00;;;2.22;79.82;100420.91;4978991;28;20207;-67
2022/01/08 04:20:42;;;;;;;22.50;18.75;;;2.20;99.90;;;2.21;79.77;100413.91;4978592;28;20230;-66
2022/01/08 04:23:13;;;;;;;20.25;16.48;;;2.20;99.90;;;2.24;79.68;100418.91;4978737;28;20167;-66
2022/01/08 04:25:42;;;;;;;25.80;18.77;;;2.30;99.90;;;2.27;79.63;100421.28;4979099;28;20187;-65
2022/01/08 04:28:11;;;;;;;20.38;16.17;;;2.30;29.10;;;2.31;79.39;100429.78;4978722;28;20604;-66
2022/01/08 04:30:40;;;;;;;19.65;16.60;;;2.30;1.00;;;2.24;79.35;100428.75;4979123;28;20351;-66
2022/01/08 04:33:08;;;;;;;22.20;17.63;;;2.30;1.00;;;2.30;79.55;100423.63;4978940;28;20250;-67
2022/01/08 04:35:37;;;;;;;20.15;17.30;;;2.30;1.00;;;2.34;79.52;100424.13;4977922;28;20631;-67
2022/01/08 04:38:06;;;;;;;23.35;18.88;;;2.30;1.00;;;2.33;79.49;100427.78;4978932;28;20571;-67
2022/01/08 04:40:34;;;;;;;25.55;18.60;;;2.30;1.00;;;2.26;79.79;100427.59;4979061;28;20223;-67
2022/01/08 04:43:04;;;;;;;18.70;16.45;;;2.30;1.00;;;2.29;79.39;100429.94;4979205;28;20246;-67
2022/01/08 04:45:33;;;;;;;22.00;17.33;;;2.30;1.00;;;2.32;79.79;100431.47;4978510;28;20271;-66
2022/01/08 04:48:03;;;;;;;17.58;14.98;;;2.30;1.00;;;2.38;79.02;100437.00;4978814;28;20192;-67
2022/01/08 04:50:31;;;;;;;16.52;14.70;;;2.30;1.00;;;2.39;79.35;100432.50;4978467;28;20207;-67
2022/01/08 04:53:00;;;;;;;18.00;13.55;;;2.40;1.00;;;2.41;79.50;100434.03;4977205;28;20202;-67
2022/01/08 04:55:29;;;;;;;14.35;12.85;;;2.40;1.00;;;2.42;78.71;100433.00;4960621;28;20605;-66
2022/01/08 04:57:57;;;;;;;17.40;14.57;;;2.40;99.90;;;2.40;79.23;100428.81;4977630;28;20207;-66
2022/01/08 05:00:26;;;;;;;15.93;14.07;;;2.40;99.90;;;2.47;79.65;100437.88;4977588;28;20245;-66
2022/01/08 05:02:55;;;;;;;16.60;14.10;;;2.50;99.90;;;2.44;78.95;100440.84;4977500;28;20195;-66
2022/01/08 05:05:24;;;;;;;17.05;14.10;;;2.40;99.90;;;2.45;78.75;100442.53;4978558;28;20270;-67
2022/01/08 05:07:53;;;;;;;15.50;11.88;;;2.40;99.90;;;2.40;79.20;100444.84;4979840;28;20323;-66
2022/01/08 05:10:21;;;;;;;16.25;12.65;;;2.40;99.90;;;2.56;78.66;100448.44;4979186;28;20270;-65
2022/01/08 05:12:49;;;;;;;14.40;12.85;;;2.50;99.90;;;2.43;78.90;100444.50;4979330;28;20188;-66
2022/01/08 05:15:18;;;;;;;14.13;11.60;;;2.40;55.50;;;2.34;79.13;100445.47;4978747;28;20211;-66
2022/01/08 05:17:53;;;;;;;17.17;12.75;;;2.40;45.70;;;2.33;79.08;100441.13;4979346;28;20568;-66
2022/01/08 05:20:26;;;;;;;13.20;11.57;;;2.40;31.40;;;2.24;78.90;100444.75;4978971;28;20217;-66
2022/01/08 05:23:00;;;;;;;17.58;13.48;;;2.30;4.10;;;2.10;79.66;100443.53;4978685;28;20191;-67
2022/01/08 05:25:30;;;;;;;19.27;12.40;;;2.20;46.70;;;2.08;80.12;100446.34;4978652;28;20178;-66
2022/01/08 05:28:00;;;;;;;19.40;14.45;;;2.10;99.90;;;2.08;80.04;100441.00;4979610;28;20191;-67
2022/01/08 05:30:30;;;;;;;15.02;13.30;;;2.20;99.90;;;2.05;79.91;100452.00;4978548;28;20215;-67
2022/01/08 05:32:59;;;;;;;16.17;14.00;;;2.10;99.90;;;1.87;80.36;100443.25;4978836;28;20534;-66
2022/01/08 05:35:30;;;;;;;16.25;11.30;;;2.00;99.90;;;1.77;80.55;100439.00;4978968;28;20191;-66
2022/01/08 05:37:59;;;;;;;21.40;15.57;;;1.90;99.90;;;1.55;80.81;100437.69;4977030;28;20584;-66
2022/01/08 05:40:27;;;;;;;15.75;12.52;;;1.80;1.00;;;1.71;81.06;100445.78;4976173;28;20219;-67
2022/01/08 05:42:56;;;;;;;15.75;12.60;;;1.80;63.70;;;1.62;81.17;100438.72;4975711;28;20533;-67
2022/01/08 05:45:24;;;;;;;17.90;14.40;;;1.80;3.20;;;1.80;80.68;100446.66;4973737;28;20218;-67
2022/01/08 05:47:52;;;;;;;19.05;14.40;;;1.80;99.90;;;1.73;80.76;100458.00;4973756;28;20192;-66
2022/01/08 05:50:20;;;;;;;20.33;14.15;;;1.80;99.90;;;1.84;80.89;100456.06;4973507;28;20211;-66
2022/01/08 05:52:50;;;;;;;18.38;15.70;;;1.90;99.90;;;1.84;80.84;100454.19;4973973;28;20523;-65
2022/01/08 05:55:19;;;;;;;17.70;13.57;;;1.90;99.90;;;1.81;81.04;100459.03;4973596;28;20564;-66
2022/01/08 05:57:47;;;;;;;18.55;14.30;;;1.90;99.90;;;1.82;81.12;100461.53;4975240;28;20282;-65
2022/01/08 06:00:16;;;;;;;18.83;14.85;;;1.90;99.90;;;1.98;80.63;100467.00;4973840;28;20222;-66
2022/01/08 06:02:45;;;;;;;20.88;14.73;;;2.00;1.00;;;1.90;81.28;100466.09;4974050;28;20544;-67
2022/01/08 06:05:13;;;;;;;17.52;14.20;;;2.00;99.90;;;2.03;80.81;100470.00;4973551;28;20190;-66
2022/01/08 06:07:42;;;;;;;18.48;14.70;;;2.00;1.00;;;2.04;80.57;100461.00;4975240;28;20175;-65
2022/01/08 06:10:11;;;;;;;19.02;13.50;;;2.00;1.00;;;2.25;80.43;100465.13;4978491;28;20207;-66
2022/01/08 06:12:40;;;;;;;16.60;13.70;;;2.10;1.00;;;2.30;79.51;100463.66;4961833;28;20187;-67
2022/01/08 06:15:10;;;;;;;16.85;12.90;;;2.20;99.90;;;2.25;79.40;100462.47;4977908;28;20271;-67
2022/01/08 06:17:39;;;;;;;17.10;13.85;;;2.30;1.00;;;2.23;79.68;100461.81;4979404;28;20668;-67
2022/01/08 06:20:09;;;;;;;23.73;14.75;;;2.20;99.90;;;2.27;79.44;100460.47;4979508;28;20227;-67
2022/01/08 06:22:37;;;;;;;19.55;15.10;;;2.30;99.90;;;2.38;79.79;100463.69;4979211;28;20194;-67
2022/01/08 06:25:07;;;;;;;17.85;12.52;;;2.30;99.90;;;2.31;78.56;100469.84;4983474;28;20523;-66
2022/01/08 06:27:37;;;;;;;16.83;13.00;;;2.30;99.90;;;2.39;78.67;100472.53;4983832;28;20195;-67
2022/01/08 06:30:07;;;;;;;17.63;12.73;;;2.40;94.40;;;2.45;78.93;100463.91;4982284;28;20217;-66
2022/01/08 06:32:35;;;;;;;16.50;14.02;;;2.40;63.20;;;2.50;78.58;100473.13;4981029;28;20207;-66
2022/01/08 06:35:05;;;;;;;14.18;12.02;;;2.50;1.00;;;2.54;78.34;100478.97;4981000;28;20196;-66
2022/01/08 06:37:33;;;;;;;18.40;13.32;;;2.50;1.00;;;2.53;78.68;100478.13;4982953;28;20188;-67
2022/01/08 06:40:01;;;;;;;17.27;12.98;;;2.50;1.00;;;2.59;78.16;100471.31;4981257;28;20231;-67
2022/01/08 06:42:30;;;;;;;20.45;13.32;;;2.50;1.00;;;2.57;78.23;100484.81;4983370;28;20172;-67
2022/01/08 06:45:00;;;;;;;14.40;12.00;;;2.50;1.00;;;2.61;78.37;100480.00;4982731;28;20188;-67
2022/01/08 06:47:28;;;;;;;15.48;12.82;;;2.60;1.00;;;2.62;78.02;100492.34;4983325;28;20266;-66
2022/01/08 06:49:57;;;;;;;14.65;12.52;;;2.60;1.00;;;2.58;77.91;100485.66;4983326;28;20204;-67
2022/01/08 06:52:25;;;;;;;19.40;14.15;;;2.60;1.00;;;2.55;78.20;100491.31;4983026;28;20193;-67
2022/01/08 06:54:53;;;;;;;17.60;13.93;;;2.60;1.00;;;2.65;78.16;100497.38;4983129;28;20184;-67
2022/01/08 06:57:24;;;;;;;17.42;13.48;;;2.60;1.00;;;2.72;78.12;100503.75;4983893;28;20183;-67
2022/01/08 06:59:52;;;;;;;14.85;11.68;;;2.70;1.00;;;2.69;77.65;100508.56;4983759;28;20222;-67
2022/01/08 07:02:24;;;;;;;28.30;13.88;;;2.70;99.90;;;2.77;77.88;100509.44;4984030;28;20250;-67
2022/01/08 07:04:52;;;;;;;18.40;13.90;;;2.70;99.90;;;2.81;77.75;100510.78;4984597;28;20179;-67
2022/01/08 07:07:21;;;;;;;14.90;12.63;;;2.80;99.90;;;2.62;77.59;100500.34;4984160;28;20188;-68
2022/01/08 07:09:49;;;;;;;14.32;12.48;;;2.70;99.90;;;2.64;77.51;100506.38;4982978;28;20258;-67
2022/01/08 07:12:17;;;;;;;16.70;12.38;;;2.60;99.90;;;2.63;77.55;100510.88;4983601;28;20172;-66
2022/01/08 07:14:46;;;;;;;19.38;12.15;;;2.60;99.90;;;2.73;77.60;100510.75;4982717;28;20184;-66
2022/01/08 07:17:14;;;;;;;17.55;11.60;;;2.70;99.90;;;2.64;76.86;100517.06;4982974;28;20632;-67
2022/01/08 07:19:44;;;;;;;15.98;12.68;;;2.60;99.90;;;2.69;76.91;100517.44;4983407;28;20621;-67
2022/01/08 07:22:12;;;;;;;16.52;11.57;;;2.60;99.90;;;2.63;76.83;100520.72;4982419;28;20188;-67
2022/01/08 07:24:41;;;;;;;18.08;14.38;;;2.60;99.90;;;2.69;77.21;100514.75;4981858;28;20187;-66
2022/01/08 07:27:10;;;;;;;16.25;12.25;;;2.70;99.90;;;2.85;77.29;100514.84;4981566;28;20176;-65
2022/01/08 07:29:38;;;;;;;16.27;12.82;;;2.80;99.90;;;2.91;76.75;100516.00;4981767;28;20203;-66
2022/01/08 07:32:08;;;;;;;19.33;12.30;;;2.80;99.90;;;2.94;75.92;100519.19;4981631;28;20232;-67
2022/01/08 07:34:36;;;;;;;18.13;13.10;;;2.90;99.90;;;2.80;76.01;100514.47;4982325;28;20279;-67
2022/01/08 07:37:06;;;;;;;15.95;11.38;;;2.80;99.90;;;2.76;76.51;100509.63;4981485;28;20278;-66
2022/01/08 07:39:46;;;;;;;17.65;11.90;;;2.80;99.90;;;2.73;76.73;100516.09;4983117;28;20674;-64
2022/01/08 07:42:15;;;;;;;16.67;12.70;;;2.80;99.90;;;2.74;77.07;100512.44;4974963;28;20238;-68
2022/01/08 07:44:44;;;;;;;18.88;13.32;;;2.70;99.90;;;2.82;76.60;100515.13;4976488;28;20180;-69
2022/01/08 07:47:12;;;;;;;17.13;12.68;;;2.80;99.90;;;2.78;76.88;100513.78;4975586;28;20258;-70
2022/01/08 07:49:41;;;;;;;18.00;13.82;;;2.80;99.90;;;2.69;77.65;100509.41;4974902;28;20187;-68
2022/01/08 07:52:11;;;;;;;12.75;11.32;;;2.70;99.90;;;2.58;77.38;100507.03;4990771;28;20724;-70
2022/01/08 07:54:40;;;;;;;14.25;12.20;;;2.60;99.90;;;2.69;77.41;100514.75;4991786;28;20654;-68
2022/01/08 07:57:10;;;;;;;16.63;13.25;;;2.70;99.90;;;2.57;77.59;100521.38;4976297;28;20176;-71
2022/01/08 07:59:38;;;;;;;15.93;13.07;;;2.60;99.90;;;2.52;77.64;100521.84;4976056;28;20227;-72
2022/01/08 08:02:07;;;;;;;14.00;12.52;;;2.60;99.90;;;2.53;77.58;100530.69;4976164;28;20187;-69
2022/01/08 08:04:36;;;;;;;17.65;14.35;;;2.60;99.90;;;2.50;78.25;100531.88;4992010;28;20218;-71
2022/01/08 08:07:05;;;;;;;18.45;12.80;;;2.60;99.90;;;2.46;78.27;100529.69;4977301;28;20252;-69
2022/01/08 08:09:35;;;;;;;20.88;14.05;;;2.50;99.90;;;2.40;77.74;100525.81;4977236;28;20218;-68
2022/01/08 08:12:05;;;;;;;16.05;12.63;;;2.50;99.90;;;2.40;78.05;100525.81;4977389;28;20188;-71
2022/01/08 08:14:34;;;;;;;17.75;13.25;;;2.50;99.90;;;2.43;78.23;100525.47;4977750;28;20229;-70
2022/01/08 08:17:02;;;;;;;20.20;14.75;;;2.50;99.90;;;2.52;77.57;100529.03;4993301;28;20192;-69
2022/01/08 08:19:31;;;;;;;16.60;13.10;;;2.50;99.90;;;2.61;77.28;100525.41;4976462;28;20230;-69
2022/01/08 08:21:59;;;;;;;18.80;13.77;;;2.60;99.90;;;2.49;77.71;100532.03;4977878;28;20210;-71
2022/01/08 08:24:28;;;;;;;17.60;13.48;;;2.50;99.90;;;2.57;77.97;100529.38;4977502;28;20191;-69
2022/01/08 08:26:59;;;;;;;17.95;14.15;;;2.60;99.90;;;2.58;77.43;100528.38;4993235;28;20195;-71
2022/01/08 08:29:28;;;;;;;17.05;13.93;;;2.60;99.90;;;2.69;77.39;100530.78;4993759;28;20230;-69
2022/01/08 08:31:56;;;;;;;18.63;15.68;;;2.60;99.90;;;2.70;77.11;100527.13;4978785;28;20236;-70
2022/01/08 08:34:25;;;;;;;17.33;14.65;;;2.70;99.90;;;2.67;76.80;100526.59;4995125;28;20191;-71
2022/01/08 08:36:53;;;;;;;18.67;11.80;;;2.70;99.90;;;2.63;76.93;100515.38;4978202;28;20187;-69
2022/01/08 08:39:21;;;;;;;14.35;12.63;;;2.70;99.90;;;2.70;77.02;100511.09;4993011;28;20219;-69
2022/01/08 08:41:50;;;;;;;15.63;13.02;;;2.60;99.90;;;2.55;77.39;100507.34;4977872;28;20207;-69
2022/01/08 08:44:20;;;;;;;23.52;14.85;;;2.60;99.90;;;2.93;76.93;100509.50;4980135;28;20180;-70
2022/01/08 08:46:49;;;;;;;21.45;16.33;;;2.70;99.90;;;2.88;76.76;100502.97;4979685;28;20195;-70
2022/01/08 08:49:26;;;;;;;22.02;17.77;;;2.80;99.90;;;3.06;76.03;100493.81;4991467;28;20214;-69
2022/01/08 08:51:55;;;;;;;22.17;15.73;;;2.90;99.90;;;3.08;76.47;100498.19;4975598;28;20179;-70
2022/01/08 08:54:39;;;;;;;21.05;16.48;;;3.00;99.90;;;3.02;76.20;100492.50;4991006;28;20242;-69
2022/01/08 08:57:37;;;;;;;22.88;17.55;;;2.90;99.90;;;2.84;76.42;100491.78;4991029;28;20306;-70
2022/01/08 09:00:50;;;;;;;20.75;15.90;;;2.80;99.90;;;2.72;77.17;100493.06;4975808;28;20254;-70
2022/01/08 09:03:49;;;;;;;23.50;17.17;;;2.70;99.90;;;2.87;76.91;100491.44;4975237;28;20187;-70
2022/01/08 09:07:02;;;;;;;19.00;15.02;;;2.80;99.90;;;2.74;76.75;100485.72;4975227;28;20202;-69
2022/01/08 09:10:45;;;;;;;18.48;15.45;;;2.70;99.90;;;2.65;77.22;100481.34;4979191;28;20254;-71
2022/01/08 09:13:38;;;;;;;18.55;14.77;;;2.80;99.90;;;2.73;77.45;100493.88;4993101;28;20225;-69
2022/01/08 09:20:06;;;;;;;19.17;16.38;;;2.80;99.90;;;2.72;77.29;100509.09;4975274;28;20250;-69
2022/01/08 09:23:04;;;;;;;22.90;16.20;;;2.80;99.90;;;2.88;77.60;100506.47;4977343;28;20179;-72
2022/01/08 09:44:21;;;;;;;17.75;14.15;;;3.40;99.90;;;3.38;74.54;100510.94;4958237;29;20575;-71
2022/01/08 09:46:50;;;;;;;17.55;13.23;;;3.50;99.90;;;3.29;75.03;100520.78;4957575;29;20208;-70
2022/01/08 09:49:20;;;;;;;16.92;14.43;;;3.30;99.90;;;3.04;74.93;100519.06;4956956;29;20219;-69
2022/01/08 09:51:49;;;;;;;15.98;12.63;;;3.20;99.90;;;2.94;75.96;100519.19;4957133;29;20211;-71
2022/01/08 09:54:18;;;;;;;21.45;13.23;;;3.00;99.90;;;2.87;75.89;100518.16;4958869;29;20180;-71
2022/01/08 10:00:45;;;;;;;18.23;14.60;;;3.00;99.90;;;2.94;75.94;100519.19;4940116;29;20200;-71
2022/01/08 10:03:19;;;;;;;16.27;14.55;;;3.00;99.90;;;2.94;76.01;100505.00;4937227;29;20220;-72
2022/01/08 10:05:54;;;;;;;19.23;14.35;;;3.00;99.90;;;2.71;76.24;100506.59;4937607;29;20314;-70
2022/01/08 10:08:44;;;;;;;19.42;13.95;;;2.90;99.90;;;2.63;77.05;100504.72;4938289;29;20228;-71
2022/01/08 10:11:26;;;;;;;17.42;15.13;;;2.70;99.90;;;2.59;77.44;100500.69;4941328;29;20391;-70
2022/01/08 10:18:45;;;;;;;18.25;13.32;;;2.60;99.90;;;2.31;77.84;100488.53;4937652;29;20220;-71
2022/01/08 10:22:29;;;;;;;17.00;13.43;;;2.40;99.90;;;2.59;77.48;100490.00;4940933;29;20216;-71
2022/01/08 10:25:12;;;;;;;22.02;15.32;;;2.60;99.90;;;2.81;77.70;100485.91;4939259;29;20220;-69
2022/01/08 10:27:40;;;;;;;19.85;14.05;;;2.70;99.90;;;2.98;76.76;100484.97;4941772;29;20213;-70
2022/01/08 10:30:25;;;;;;;18.10;16.17;;;2.90;99.90;;;3.17;76.38;100484.66;4941309;29;20212;-71
2022/01/08 10:32:58;;;;;;;16.63;13.02;;;3.00;99.90;;;3.10;75.86;100482.81;4942641;29;20178;-71
2022/01/08 10:35:50;;;;;;;17.10;12.40;;;3.00;99.90;;;3.19;75.48;100479.16;4942117;29;20169;-71
2022/01/08 10:38:20;;;;;;;17.27;13.35;;;3.10;99.90;;;3.24;75.68;100471.50;4939905;29;20219;-71
2022/01/08 10:40:48;;;;;;;21.63;14.50;;;3.20;99.90;;;3.45;74.82;100469.16;4938575;29;20181;-69
2022/01/08 10:43:27;;;;;;;18.95;15.15;;;3.30;99.90;;;3.20;75.38;100473.63;4939196;29;20189;-72
2022/01/08 10:46:11;;;;;;;18.50;13.35;;;3.20;99.90;;;3.52;74.31;100467.50;4937462;29;20183;-69
2022/01/08 10:48:46;;;;;;;15.70;13.48;;;3.30;99.90;;;3.53;74.22;100461.13;4937835;29;20308;-71
2022/01/08 10:51:22;;;;;;;15.82;13.50;;;3.50;99.90;;;3.48;73.79;100463.47;4937620;29;20223;-71
2022/01/08 10:54:09;;;;;;;15.75;13.38;;;3.50;99.90;;;3.47;74.15;100470.66;4938296;29;20490;-70
2022/01/08 10:56:41;;;;;;;18.58;13.80;;;3.40;99.90;;;3.70;73.64;100468.16;4937764;29;20706;-70
2022/01/08 10:59:20;;;;;;;19.48;13.82;;;3.60;99.90;;;3.88;72.96;100470.63;4938666;29;20216;-71
2022/01/08 11:01:55;;;;;;;19.70;13.02;;;3.70;99.90;;;4.24;72.63;100465.72;4937806;29;20240;-69
2022/01/08 11:04:38;;;;;;;15.50;13.50;;;3.90;99.90;;;4.15;71.53;100464.06;4938280;29;20228;-72
2022/01/08 11:07:28;;;;;;;15.57;11.75;;;4.10;99.90;;;4.17;71.97;100462.88;4938321;29;20184;-70
2022/01/08 11:11:18;;;;;;;14.98;13.40;;;4.00;99.90;;;4.70;70.30;100472.91;4943598;29;20605;-70
2022/01/08 11:18:13;;;;;;;15.00;12.52;;;4.10;99.90;;;4.25;71.07;100473.59;4945403;29;20216;-72
2022/01/08 11:21:36;;;;;;;19.90;15.07;;;4.20;99.90;;;4.02;71.74;100479.84;4950439;29;20205;-70
2022/01/08 11:24:06;;;;;;;14.43;12.88;;;4.00;99.90;;;3.66;72.17;100485.53;4948952;29;20177;-72
2022/01/08 11:26:40;;;;;;;16.02;13.82;;;3.80;99.90;;;3.82;71.63;100496.25;4953535;29;20185;-70